Time;durP1;ratioP1;P1;durP2;ratioP2;P2;SDS_P1;SDS_P2;PMS_P1;PMS_P2;Temp;Humidity;BMP_temperature;BMP_pressure;BME280_temperature;BME280_humidity;BME280_pressure;Samples;Min_cycle;Max_cycle;Signal;HPM_P1;HPM_P2
2021/04/27 00:02:16;;;;;;;1.03;1.00;;;2.50;99.90;;;;;;5033032;28;20951;-78
2021/04/27 00:04:42;;;;;;;1.90;1.73;;;2.50;99.90;;;;;;5036828;28;21191;-79
2021/04/27 00:07:08;;;;;;;1.33;1.23;;;2.50;99.90;;;;;;5070514;28;20253;-78
2021/04/27 00:09:34;;;;;;;1.93;1.73;;;2.50;99.90;;;;;;5054116;28;20259;-79
2021/04/27 00:12:00;;;;;;;0.60;0.60;;;2.60;99.90;;;;;;5034116;28;20216;-77
2021/04/27 00:14:27;;;;;;;1.20;1.20;;;2.60;99.90;;;;;;5038414;28;20193;-80
2021/04/27 00:16:53;;;;;;;0.97;0.97;;;2.50;99.90;;;;;;5071121;28;20198;-80
2021/04/27 00:19:19;;;;;;;6.30;1.80;;;2.50;99.90;;;;;;5037813;28;20234;-80
2021/04/27 00:21:45;;;;;;;1.60;1.30;;;2.50;99.90;;;;;;5067761;28;20714;-79
2021/04/27 00:24:11;;;;;;;6.33;1.83;;;2.50;99.90;;;;;;5018524;28;20219;-79
2021/04/27 00:26:36;;;;;;;1.13;1.03;;;2.50;99.90;;;;;;5038748;28;20284;-81
2021/04/27 00:29:04;;;;;;;3.30;1.90;;;2.50;99.90;;;;;;5037414;28;20189;-80
2021/04/27 00:31:30;;;;;;;2.00;1.83;;;2.40;99.90;;;;;;5070089;28;20232;-79
2021/04/27 00:33:57;;;;;;;2.77;2.07;;;2.30;99.90;;;;;;5051506;28;20227;-80
2021/04/27 00:36:23;;;;;;;0.87;0.87;;;2.20;99.90;;;;;;5067174;28;20212;-80
2021/04/27 00:38:49;;;;;;;3.67;1.33;;;2.10;99.90;;;;;;5071977;28;20216;-80
2021/04/27 00:41:15;;;;;;;13.87;2.17;;;2.10;99.90;;;;;;5035976;28;20248;-82
2021/04/27 00:43:41;;;;;;;1.50;1.40;;;2.10;99.90;;;;;;5019295;28;20690;-80
2021/04/27 00:46:08;;;;;;;1.20;1.20;;;2.10;99.90;;;;;;5071841;28;20220;-81
2021/04/27 00:48:33;;;;;;;2.77;1.67;;;2.10;99.90;;;;;;5051518;28;20213;-79
2021/04/27 00:51:00;;;;;;;3.83;1.70;;;2.10;99.90;;;;;;5050716;28;20229;-80
2021/04/27 00:53:27;;;;;;;2.13;2.03;;;2.00;99.90;;;;;;5049964;28;20244;-81
2021/04/27 00:55:53;;;;;;;1.87;1.77;;;2.10;99.90;;;;;;5039743;28;20204;-81
2021/04/27 00:58:21;;;;;;;1.87;1.77;;;2.10;99.90;;;;;;5052628;28;20293;-81
2021/04/27 01:00:47;;;;;;;4.63;1.60;;;2.10;99.90;;;;;;5035938;28;20220;-80
2021/04/27 01:03:13;;;;;;;1.60;1.50;;;2.10;99.90;;;;;;5053087;28;20281;-80
2021/04/27 01:05:40;;;;;;;2.77;1.37;;;2.10;99.90;;;;;;5033804;28;21236;-79
2021/04/27 01:08:29;;;;;;;1.63;1.50;;;2.10;99.90;;;;;;5054199;28;20189;-79
2021/04/27 01:11:22;;;;;;;8.50;1.67;;;2.20;99.90;;;;;;5069830;28;20713;-79
2021/04/27 01:14:18;;;;;;;7.50;1.80;;;2.20;99.90;;;;;;5052278;28;20319;-78
2021/04/27 01:16:53;;;;;;;2.30;1.17;;;2.30;99.90;;;;;;5061662;28;20215;-81
2021/04/27 01:19:27;;;;;;;3.13;1.43;;;2.40;99.90;;;;;;5050028;28;20216;-80
2021/04/27 01:21:55;;;;;;;2.07;1.40;;;2.40;99.90;;;;;;5066181;28;20571;-80
2021/04/27 01:24:29;;;;;;;2.10;1.97;;;2.50;99.90;;;;;;5050976;28;20220;-79
2021/04/27 01:26:57;;;;;;;1.43;1.33;;;2.50;99.90;;;;;;5051147;28;20585;-78
2021/04/27 01:29:27;;;;;;;1.13;1.07;;;2.50;99.90;;;;;;5049137;28;20185;-79
2021/04/27 01:31:55;;;;;;;1.50;1.40;;;2.50;99.90;;;;;;5053037;28;20299;-81
2021/04/27 01:34:30;;;;;;;3.20;1.13;;;2.50;99.90;;;;;;5068512;28;20220;-80
2021/04/27 01:36:56;;;;;;;3.10;1.60;;;2.40;99.90;;;;;;5067420;28;20212;-78
2021/04/27 01:39:27;;;;;;;1.53;1.43;;;2.40;99.90;;;;;;5033941;28;20640;-80
2021/04/27 01:42:01;;;;;;;1.17;1.10;;;2.30;99.90;;;;;;5052812;28;20221;-81
2021/04/27 01:44:29;;;;;;;5.77;2.03;;;2.30;99.90;;;;;;5066450;28;20188;-80
2021/04/27 01:46:56;;;;;;;1.30;1.30;;;2.30;99.90;;;;;;5052047;28;20216;-81
2021/04/27 01:49:23;;;;;;;1.27;1.17;;;2.30;99.90;;;;;;5052873;28;20270;-80
2021/04/27 01:51:54;;;;;;;1.53;1.43;;;2.20;99.90;;;;;;5052330;28;20716;-80
2021/04/27 01:54:28;;;;;;;3.23;1.47;;;2.20;99.90;;;;;;5050998;28;20233;-81
2021/04/27 01:56:55;;;;;;;1.07;0.77;;;2.10;99.90;;;;;;5067757;28;20239;-80
2021/04/27 01:59:21;;;;;;;1.73;1.63;;;2.10;99.90;;;;;;5052559;28;20189;-79
2021/04/27 02:01:47;;;;;;;1.43;1.37;;;2.10;99.90;;;;;;5050355;28;20246;-80
2021/04/27 02:04:25;;;;;;;1.83;1.03;;;2.00;99.90;;;;;;5067631;28;21150;-77
2021/04/27 02:06:52;;;;;;;2.10;1.13;;;2.00;99.90;;;;;;5051977;28;20211;-79
2021/04/27 02:09:20;;;;;;;4.70;1.90;;;2.00;99.90;;;;;;5035222;28;20274;-79
2021/04/27 02:11:49;;;;;;;1.27;1.17;;;2.10;99.90;;;;;;5049856;28;20323;-78
2021/04/27 02:14:16;;;;;;;1.40;1.40;;;2.10;99.90;;;;;;5065786;28;20212;-82
2021/04/27 02:17:06;;;;;;;1.30;1.30;;;2.10;99.90;;;;;;5061828;28;20381;-80
2021/04/27 02:19:33;;;;;;;1.03;1.00;;;2.00;99.90;;;;;;5044510;28;20239;-77
2021/04/27 02:22:06;;;;;;;2.07;1.97;;;1.90;99.90;;;;;;5042793;28;20221;-78
2021/04/27 02:24:34;;;;;;;1.17;1.07;;;1.90;99.90;;;;;;5047005;28;20209;-78
2021/04/27 02:27:02;;;;;;;1.07;1.07;;;1.90;99.90;;;;;;5066336;28;20299;-78
2021/04/27 02:29:29;;;;;;;9.07;2.23;;;1.90;99.90;;;;;;5046209;28;20198;-78
2021/04/27 02:31:57;;;;;;;1.37;1.20;;;1.90;99.90;;;;;;5049832;28;20228;-78
2021/04/27 02:34:25;;;;;;;1.83;1.13;;;1.90;99.90;;;;;;5067266;28;20213;-79
2021/04/27 02:36:53;;;;;;;1.50;1.40;;;1.80;99.90;;;;;;5050236;28;20220;-77
2021/04/27 02:39:19;;;;;;;1.53;1.40;;;1.80;99.90;;;;;;5067941;28;20253;-79
2021/04/27 02:41:45;;;;;;;2.10;2.00;;;1.70;99.90;;;;;;5059165;28;20602;-78
2021/04/27 02:44:12;;;;;;;1.60;1.27;;;1.60;99.90;;;;;;5051619;28;20193;-79
2021/04/27 02:46:41;;;;;;;2.03;1.27;;;1.60;99.90;;;;;;5050209;28;20291;-77
2021/04/27 02:49:10;;;;;;;2.90;2.30;;;1.50;99.90;;;;;;5068264;28;20220;-79
2021/04/27 02:51:36;;;;;;;1.60;1.37;;;1.60;99.90;;;;;;5047359;28;20259;-80
2021/04/27 02:54:02;;;;;;;1.43;1.07;;;1.70;99.90;;;;;;5045235;28;20241;-78
2021/04/27 02:56:27;;;;;;;2.77;1.27;;;1.70;99.90;;;;;;5025931;28;20193;-77
2021/04/27 02:58:54;;;;;;;1.93;1.63;;;1.80;99.90;;;;;;5045961;28;20190;-76
2021/04/27 03:01:19;;;;;;;2.13;1.17;;;1.90;99.90;;;;;;5029714;28;20287;-78
2021/04/27 03:03:45;;;;;;;2.53;2.23;;;1.80;99.90;;;;;;5028934;28;20709;-80
2021/04/27 03:06:12;;;;;;;3.87;1.80;;;1.70;99.90;;;;;;5027680;28;20221;-81
2021/04/27 03:08:37;;;;;;;2.57;1.37;;;1.70;99.90;;;;;;5028211;28;20219;-79
2021/04/27 03:11:03;;;;;;;2.17;1.83;;;1.70;99.90;;;;;;5030250;28;20678;-79
2021/04/27 03:13:29;;;;;;;1.60;1.50;;;1.80;99.90;;;;;;5026580;28;20239;-80
2021/04/27 03:15:55;;;;;;;4.07;1.97;;;1.80;99.90;;;;;;5027036;28;20218;-80
2021/04/27 03:18:21;;;;;;;1.80;1.70;;;1.80;99.90;;;;;;5042997;28;21291;-79
2021/04/27 03:20:47;;;;;;;1.20;1.07;;;1.80;99.90;;;;;;5044572;28;20229;-78
2021/04/27 03:23:13;;;;;;;1.87;1.67;;;1.80;99.90;;;;;;5046283;28;20198;-81
2021/04/27 03:25:40;;;;;;;2.47;1.63;;;1.70;99.90;;;;;;5045478;28;20190;-79
2021/04/27 03:28:08;;;;;;;1.87;1.77;;;1.70;99.90;;;;;;5045142;28;20226;-80
2021/04/27 03:30:35;;;;;;;2.40;2.20;;;1.70;99.90;;;;;;5030143;28;20264;-78
2021/04/27 03:33:01;;;;;;;5.93;1.27;;;1.90;99.90;;;;;;5048521;28;20253;-77
2021/04/27 03:35:27;;;;;;;2.70;2.50;;;1.90;99.90;;;;;;5049731;28;20297;-80
2021/04/27 03:37:53;;;;;;;8.83;2.33;;;2.00;99.90;;;;;;5048142;28;20185;-79
2021/04/27 03:40:19;;;;;;;3.57;2.47;;;2.00;99.90;;;;;;5039871;28;20267;-81
2021/04/27 03:42:45;;;;;;;1.27;1.27;;;2.00;99.90;;;;;;5050356;28;20971;-78
2021/04/27 03:45:15;;;;;;;2.40;1.33;;;1.80;99.90;;;;;;5031075;28;20263;-79
2021/04/27 03:47:42;;;;;;;2.27;2.10;;;1.70;99.90;;;;;;5050428;28;20335;-80
2021/04/27 03:50:12;;;;;;;1.63;1.53;;;1.60;99.90;;;;;;5047474;28;20217;-80
2021/04/27 03:52:38;;;;;;;2.60;2.30;;;1.70;99.90;;;;;;5048181;28;20791;-80
2021/04/27 03:55:05;;;;;;;2.23;1.80;;;1.70;99.90;;;;;;5028503;28;20740;-79
2021/04/27 03:57:31;;;;;;;1.40;1.30;;;1.80;99.90;;;;;;5047867;28;20213;-79
2021/04/27 03:59:57;;;;;;;2.57;2.20;;;1.70;99.90;;;;;;5049288;28;20221;-80
2021/04/27 04:02:23;;;;;;;2.50;2.30;;;1.70;99.90;;;;;;5047732;28;20244;-78
2021/04/27 04:04:48;;;;;;;1.60;1.50;;;1.70;99.90;;;;;;5048819;28;20933;-80
2021/04/27 04:07:14;;;;;;;1.30;1.20;;;1.70;99.90;;;;;;5014483;28;20213;-80
2021/04/27 04:09:40;;;;;;;2.37;1.83;;;1.60;99.90;;;;;;5013689;28;20260;-80
2021/04/27 04:12:07;;;;;;;2.23;1.63;;;1.70;99.90;;;;;;5046742;28;21134;-80
2021/04/27 04:14:34;;;;;;;2.20;2.03;;;1.80;99.90;;;;;;5014499;28;20316;-80
2021/04/27 04:16:59;;;;;;;3.10;1.57;;;2.20;99.90;;;;;;5033144;28;20185;-79
2021/04/27 04:19:25;;;;;;;1.20;1.20;;;2.40;99.90;;;;;;5030192;28;20741;-81
2021/04/27 04:21:51;;;;;;;2.10;1.97;;;2.50;99.90;;;;;;5046257;28;20596;-80
2021/04/27 04:24:17;;;;;;;3.27;2.53;;;2.60;99.90;;;;;;5029250;28;20238;-81
2021/04/27 04:26:42;;;;;;;2.53;2.33;;;2.60;99.90;;;;;;5030197;28;20229;-80
2021/04/27 04:29:08;;;;;;;2.30;2.10;;;2.60;99.90;;;;;;5040608;28;20244;-80
2021/04/27 04:31:34;;;;;;;1.70;1.33;;;2.60;99.90;;;;;;5017141;28;20225;-80
2021/04/27 04:34:00;;;;;;;7.83;2.27;;;2.70;99.90;;;;;;5029671;28;20214;-80
2021/04/27 04:36:26;;;;;;;1.50;1.40;;;2.80;99.90;;;;;;5027485;28;20336;-80
2021/04/27 04:38:51;;;;;;;2.53;1.73;;;2.90;99.90;;;;;;5046572;28;20251;-78
2021/04/27 04:41:17;;;;;;;2.43;1.90;;;3.00;99.90;;;;;;5044340;28;20193;-79
2021/04/27 04:43:43;;;;;;;5.13;1.20;;;3.00;99.90;;;;;;5030869;28;20255;-79
2021/04/27 04:46:09;;;;;;;2.33;1.87;;;3.00;99.90;;;;;;5038673;28;20679;-79
2021/04/27 04:48:35;;;;;;;1.90;1.73;;;2.90;99.90;;;;;;5046163;28;20229;-79
2021/04/27 04:51:01;;;;;;;2.40;2.10;;;3.10;99.90;;;;;;5030946;28;20222;-79
2021/04/27 04:53:27;;;;;;;0.73;0.73;;;3.20;99.90;;;;;;5046970;28;20572;-79
2021/04/27 04:55:53;;;;;;;1.30;1.23;;;3.30;99.90;;;;;;5049451;28;20208;-79
2021/04/27 04:58:19;;;;;;;2.87;1.47;;;3.40;99.90;;;;;;5030255;28;20251;-78
2021/04/27 05:00:45;;;;;;;2.10;1.80;;;3.50;99.90;;;;;;5029647;28;20699;-79
2021/04/27 05:03:11;;;;;;;3.30;1.63;;;3.60;99.90;;;;;;5046514;28;20210;-79
2021/04/27 05:05:36;;;;;;;2.70;1.93;;;3.70;99.90;;;;;;5047753;28;20213;-80
2021/04/27 05:08:12;;;;;;;2.73;2.10;;;3.70;99.90;;;;;;5015898;28;20185;-80
2021/04/27 05:10:38;;;;;;;1.20;1.03;;;3.80;99.90;;;;;;5044752;28;20237;-78
2021/04/27 05:13:04;;;;;;;3.23;2.93;;;4.00;99.90;;;;;;5048144;28;21007;-80
2021/04/27 05:15:30;;;;;;;1.40;1.30;;;4.10;99.90;;;;;;5030086;28;20225;-80
2021/04/27 05:17:57;;;;;;;2.03;1.87;;;4.70;99.90;;;;;;5046226;28;20225;-79
2021/04/27 05:20:23;;;;;;;2.00;1.60;;;5.30;99.90;;;;;;5046320;28;21130;-80
2021/04/27 05:22:49;;;;;;;2.10;1.67;;;5.90;99.90;;;;;;5012038;28;20186;-80
2021/04/27 05:25:16;;;;;;;3.23;2.93;;;6.10;99.90;;;;;;5046029;28;20260;-79
2021/04/27 05:27:42;;;;;;;2.50;1.57;;;5.80;99.90;;;;;;5028411;28;20226;-81
2021/04/27 05:30:09;;;;;;;2.70;1.73;;;6.10;99.90;;;;;;5047506;28;20236;-78
2021/04/27 05:32:35;;;;;;;1.60;1.50;;;7.80;99.90;;;;;;5027764;28;20224;-81
2021/04/27 05:35:01;;;;;;;2.40;1.70;;;9.70;99.90;;;;;;5046112;28;20550;-81
2021/04/27 05:37:27;;;;;;;2.67;2.47;;;10.30;99.90;;;;;;5044661;28;20221;-79
2021/04/27 05:39:53;;;;;;;2.00;1.73;;;10.80;99.90;;;;;;5027665;28;20800;-80
2021/04/27 05:42:18;;;;;;;2.10;1.80;;;10.60;99.90;;;;;;5053222;28;20322;-81
2021/04/27 05:44:44;;;;;;;3.50;2.37;;;8.80;99.90;;;;;;5013593;28;20458;-79
2021/04/27 05:47:10;;;;;;;8.40;2.07;;;8.40;99.90;;;;;;5029893;28;20647;-82
2021/04/27 05:49:36;;;;;;;3.27;2.23;;;9.30;99.90;;;;;;5028401;28;20217;-78
2021/04/27 05:52:02;;;;;;;2.80;2.50;;;10.30;99.90;;;;;;5027391;28;20296;-80
2021/04/27 05:54:28;;;;;;;3.13;2.13;;;10.00;99.90;;;;;;5060792;28;21157;-81
2021/04/27 05:56:54;;;;;;;2.03;1.87;;;8.70;99.90;;;;;;5045599;28;20214;-80
2021/04/27 05:59:19;;;;;;;2.67;1.37;;;7.40;99.90;;;;;;5014303;28;20201;-81
2021/04/27 06:01:45;;;;;;;2.60;2.40;;;6.70;99.90;;;;;;5049077;28;20190;-80
2021/04/27 06:04:11;;;;;;;2.07;1.97;;;6.70;99.90;;;;;;5045728;28;20225;-79
2021/04/27 06:06:37;;;;;;;16.80;2.67;;;6.70;99.90;;;;;;5011557;28;20279;-80
2021/04/27 06:09:05;;;;;;;1.87;1.23;;;6.70;99.90;;;;;;5046348;28;20229;-81
2021/04/27 06:11:31;;;;;;;2.70;1.57;;;6.70;99.90;;;;;;5030261;28;20233;-80
2021/04/27 06:13:57;;;;;;;3.47;2.43;;;7.50;99.90;;;;;;5050621;28;20193;-80
2021/04/27 06:16:24;;;;;;;4.67;2.13;;;8.50;99.90;;;;;;5047778;28;20591;-81
2021/04/27 06:18:50;;;;;;;3.70;2.20;;;9.30;99.90;;;;;;5015035;28;20251;-82
2021/04/27 06:21:16;;;;;;;1.83;1.70;;;9.70;99.90;;;;;;5048941;28;20221;-80
2021/04/27 06:23:42;;;;;;;4.30;2.07;;;9.70;99.90;;;;;;5029107;28;20213;-81
2021/04/27 06:26:08;;;;;;;1.53;1.43;;;9.80;99.90;;;;;;5050314;28;20196;-82
2021/04/27 06:28:34;;;;;;;2.57;2.23;;;9.50;99.90;;;;;;5047358;28;20582;-79
2021/04/27 06:30:59;;;;;;;2.23;1.77;;;8.30;99.90;;;;;;5046312;28;20618;-80
2021/04/27 06:33:25;;;;;;;7.23;2.23;;;9.00;99.90;;;;;;5030640;28;20221;-80
2021/04/27 06:35:51;;;;;;;4.17;1.70;;;9.70;99.90;;;;;;5031653;28;20226;-78
2021/04/27 06:38:18;;;;;;;2.57;2.37;;;10.00;99.90;;;;;;5028405;28;20224;-80
2021/04/27 06:40:52;;;;;;;5.63;2.87;;;10.10;99.90;;;;;;5032302;28;20201;-79
2021/04/27 06:43:18;;;;;;;4.07;2.30;;;9.70;99.90;;;;;;5032267;28;20271;-81
2021/04/27 06:45:44;;;;;;;2.23;2.03;;;10.20;99.90;;;;;;5015876;28;20209;-80
2021/04/27 06:48:10;;;;;;;2.77;1.97;;;10.00;99.90;;;;;;5049600;28;20228;-81
2021/04/27 06:50:37;;;;;;;2.37;2.07;;;10.00;99.90;;;;;;5050499;28;20999;-81
2021/04/27 06:53:03;;;;;;;3.23;1.77;;;9.80;99.90;;;;;;5050005;28;20181;-80
2021/04/27 06:55:30;;;;;;;2.90;2.17;;;9.70;99.90;;;;;;5024139;28;20242;-79
2021/04/27 06:58:06;;;;;;;5.03;1.83;;;10.10;99.90;;;;;;5042152;28;20209;-81
2021/04/27 07:00:33;;;;;;;3.07;2.80;;;10.00;99.90;;;;;;5044746;28;20626;-80
2021/04/27 07:02:59;;;;;;;2.80;1.70;;;10.00;99.90;;;;;;5027539;28;20376;-80
2021/04/27 07:05:26;;;;;;;1.67;1.57;;;10.10;99.90;;;;;;5026244;28;20670;-80
2021/04/27 07:07:52;;;;;;;2.33;2.13;;;10.00;99.90;;;;;;5029164;28;20192;-80
2021/04/27 07:10:18;;;;;;;8.07;2.20;;;10.10;99.90;;;;;;5046803;28;20237;-81
2021/04/27 07:12:44;;;;;;;3.37;3.10;;;10.60;99.90;;;;;;5045843;28;20214;-80
2021/04/27 07:15:10;;;;;;;2.40;1.97;;;10.70;99.90;;;;;;5029482;28;20218;-79
2021/04/27 07:17:36;;;;;;;2.40;1.80;;;10.40;99.90;;;;;;5031159;28;20247;-83
2021/04/27 07:20:03;;;;;;;3.40;2.27;;;11.00;99.90;;;;;;5032889;28;21669;-82
2021/04/27 07:22:28;;;;;;;5.17;1.63;;;11.00;99.90;;;;;;5050023;28;20378;-84
2021/04/27 07:24:56;;;;;;;1.87;1.53;;;10.40;99.90;;;;;;5047398;28;20612;-83
2021/04/27 07:27:22;;;;;;;2.33;2.10;;;10.30;99.90;;;;;;5046663;28;20221;-80
2021/04/27 07:29:48;;;;;;;4.57;2.77;;;10.60;99.90;;;;;;5030613;28;20674;-80
2021/04/27 07:32:14;;;;;;;1.67;1.50;;;11.20;99.90;;;;;;5047698;28;20217;-81
2021/04/27 07:34:41;;;;;;;1.70;1.60;;;11.40;99.90;;;;;;5047479;28;20181;-81
2021/04/27 07:37:07;;;;;;;1.90;1.47;;;11.10;99.90;;;;;;5048905;28;20576;-83
2021/04/27 07:39:33;;;;;;;1.20;1.10;;;11.00;99.90;;;;;;5045746;28;20226;-81
2021/04/27 07:41:59;;;;;;;1.90;1.47;;;10.40;99.90;;;;;;5048988;28;20708;-81
2021/04/27 07:44:26;;;;;;;2.27;2.17;;;10.50;99.90;;;;;;5049903;28;20197;-81
2021/04/27 07:46:51;;;;;;;1.37;1.13;;;10.20;99.90;;;;;;5053328;28;20212;-81
2021/04/27 07:49:17;;;;;;;1.53;1.10;;;10.80;99.90;;;;;;5047737;28;20221;-82
2021/04/27 07:51:43;;;;;;;4.80;2.30;;;11.20;99.90;;;;;;5034833;28;20232;-80
2021/04/27 07:54:10;;;;;;;2.30;2.10;;;11.80;99.90;;;;;;5031791;28;20234;-81
2021/04/27 07:56:36;;;;;;;1.83;1.60;;;11.80;99.90;;;;;;5032988;28;20232;-83
2021/04/27 07:59:06;;;;;;;1.57;1.47;;;11.90;99.90;;;;;;5052935;28;20181;-80
2021/04/27 08:01:34;;;;;;;3.97;2.53;;;12.20;99.90;;;;;;5050713;28;20237;-81
2021/04/27 08:04:00;;;;;;;1.77;1.57;;;11.50;99.90;;;;;;5033627;28;20206;-80
2021/04/27 08:06:26;;;;;;;1.97;1.73;;;11.20;99.90;;;;;;5035340;28;20228;-82
2021/04/27 08:08:52;;;;;;;3.47;2.30;;;11.30;99.90;;;;;;5054460;28;20216;-80
2021/04/27 08:11:18;;;;;;;2.77;2.03;;;11.90;99.90;;;;;;5018498;28;20222;-79
2021/04/27 08:13:44;;;;;;;2.90;2.03;;;11.60;99.90;;;;;;5053867;28;20193;-79
2021/04/27 08:16:11;;;;;;;3.77;2.10;;;12.10;99.90;;;;;;5050633;28;20282;-84
2021/04/27 08:18:37;;;;;;;3.53;2.07;;;12.50;99.90;;;;;;5015921;28;20637;-83
2021/04/27 08:21:05;;;;;;;3.03;1.77;;;13.30;99.90;;;;;;5048209;28;20220;-79
2021/04/27 08:23:31;;;;;;;3.10;2.77;;;12.60;99.90;;;;;;5051084;28;20217;-78
2021/04/27 08:25:58;;;;;;;7.63;1.80;;;12.50;99.90;;;;;;5049215;28;20190;-80
2021/04/27 08:28:24;;;;;;;3.13;2.07;;;12.60;99.90;;;;;;5050425;28;20235;-79
2021/04/27 08:30:50;;;;;;;6.50;2.20;;;12.40;99.90;;;;;;5015435;28;20253;-80
2021/04/27 08:33:16;;;;;;;2.93;1.80;;;12.60;99.90;;;;;;5046872;28;20251;-81
2021/04/27 08:35:42;;;;;;;3.20;2.33;;;12.90;99.90;;;;;;5031990;28;20574;-79
2021/04/27 08:38:09;;;;;;;2.93;2.43;;;13.30;99.90;;;;;;5032713;28;20184;-82
2021/04/27 08:40:34;;;;;;;2.60;2.00;;;13.20;99.90;;;;;;5051598;28;20217;-80
2021/04/27 08:43:01;;;;;;;2.93;2.10;;;13.00;99.90;;;;;;5031366;28;20352;-80
2021/04/27 08:45:27;;;;;;;3.37;2.13;;;12.90;99.90;;;;;;5047871;28;20333;-81
2021/04/27 08:47:53;;;;;;;2.33;2.13;;;12.80;99.90;;;;;;5030913;28;20222;-79
2021/04/27 08:50:19;;;;;;;1.73;1.17;;;12.60;99.90;;;;;;5046958;28;20679;-79
2021/04/27 08:52:46;;;;;;;2.23;2.03;;;12.70;99.90;;;;;;5034196;28;20190;-81
2021/04/27 08:55:13;;;;;;;5.13;2.50;;;13.00;99.90;;;;;;5064472;28;20298;-80
2021/04/27 08:57:40;;;;;;;3.40;2.10;;;13.30;99.90;;;;;;5052476;28;20225;-80
2021/04/27 09:00:09;;;;;;;2.27;1.87;;;13.30;99.90;;;;;;5049658;28;20217;-81
2021/04/27 09:02:36;;;;;;;4.73;1.73;;;13.30;99.90;;;;;;5051820;28;20606;-81
2021/04/27 09:05:03;;;;;;;3.60;1.53;;;13.30;99.90;;;;;;5052821;28;20284;-82
2021/04/27 09:07:41;;;;;;;2.53;2.20;;;13.40;99.90;;;;;;5051151;28;20220;-83
2021/04/27 09:10:14;;;;;;;2.20;1.87;;;13.40;99.90;;;;;;5048144;28;20213;-82
2021/04/27 09:12:50;;;;;;;2.97;2.30;;;13.60;99.90;;;;;;5070727;28;20213;-81
2021/04/27 09:15:36;;;;;;;1.70;1.60;;;14.00;99.90;;;;;;5054370;28;20216;-81
2021/04/27 09:18:21;;;;;;;2.40;1.77;;;14.00;99.90;;;;;;5048775;28;20592;-82
2021/04/27 09:20:53;;;;;;;1.70;1.33;;;13.70;99.90;;;;;;5045930;28;20217;-82
2021/04/27 09:23:19;;;;;;;1.50;1.40;;;13.30;99.90;;;;;;5049097;28;20193;-82
2021/04/27 09:26:17;;;;;;;3.20;1.47;;;13.60;99.90;;;;;;5053106;28;20185;-81
2021/04/27 09:28:45;;;;;;;3.50;2.10;;;13.90;99.90;;;;;;5053095;28;20252;-81
2021/04/27 09:31:29;;;;;;;2.73;2.43;;;14.10;99.90;;;;;;5049771;28;20567;-80
2021/04/27 09:34:18;;;;;;;2.83;1.63;;;14.00;99.90;;;;;;5052144;28;20567;-82
2021/04/27 09:36:44;;;;;;;0.90;0.90;;;13.70;99.90;;;;;;5051058;28;20777;-80
2021/04/27 09:39:11;;;;;;;2.67;1.87;;;13.30;99.90;;;;;;5051544;28;20232;-80
2021/04/27 09:41:36;;;;;;;1.17;0.93;;;13.50;99.90;;;;;;5050858;28;20228;-80
2021/04/27 09:44:02;;;;;;;1.50;1.20;;;13.80;99.90;;;;;;5036423;28;20212;-82
2021/04/27 09:46:28;;;;;;;1.90;1.80;;;13.60;99.90;;;;;;5035367;28;20224;-83
2021/04/27 09:48:58;;;;;;;1.23;1.13;;;13.80;99.90;;;;;;5069547;28;20288;-82
2021/04/27 09:51:29;;;;;;;1.40;1.30;;;13.60;99.90;;;;;;5052575;28;20232;-82
2021/04/27 09:54:02;;;;;;;2.67;1.70;;;13.60;99.90;;;;;;5050360;28;20335;-81
2021/04/27 09:56:38;;;;;;;3.63;1.77;;;13.70;99.90;;;;;;5050865;28;20219;-82
2021/04/27 09:59:30;;;;;;;0.40;0.40;;;14.10;99.90;;;;;;5054551;28;20210;-82
2021/04/27 10:02:01;;;;;;;1.57;1.47;;;13.70;99.90;;;;;;5052721;28;20220;-81
2021/04/27 10:04:28;;;;;;;2.63;1.77;;;13.80;99.90;;;;;;5064805;28;20225;-83
2021/04/27 10:06:54;;;;;;;1.67;1.40;;;13.80;99.90;;;;;;5050233;28;20245;-82
2021/04/27 10:09:20;;;;;;;1.87;1.70;;;14.00;99.90;;;;;;5049452;28;20300;-83
2021/04/27 10:11:51;;;;;;;1.97;1.73;;;14.00;98.70;;;;;;5050075;28;20775;-81
2021/04/27 10:14:17;;;;;;;1.97;1.87;;;14.40;99.90;;;;;;5033087;28;20193;-82
2021/04/27 10:16:44;;;;;;;2.07;1.70;;;13.70;99.20;;;;;;5071309;28;20268;-81
2021/04/27 10:19:11;;;;;;;1.40;1.20;;;13.60;99.80;;;;;;5067362;28;20217;-83
2021/04/27 10:21:37;;;;;;;1.70;1.30;;;13.60;98.60;;;;;;5068116;28;20236;-82
2021/04/27 10:24:15;;;;;;;1.47;1.37;;;13.80;98.90;;;;;;5034502;28;20216;-81
2021/04/27 10:26:44;;;;;;;1.20;1.10;;;14.10;99.90;;;;;;5052983;28;20246;-81
2021/04/27 10:29:24;;;;;;;1.53;0.97;;;14.00;97.20;;;;;;5035793;28;20185;-83
2021/04/27 10:32:15;;;;;;;2.50;2.30;;;14.20;98.50;;;;;;5068558;28;20230;-80
2021/04/27 10:35:00;;;;;;;2.13;1.97;;;13.90;98.50;;;;;;5049553;28;20220;-82
2021/04/27 10:37:28;;;;;;;1.57;1.23;;;14.20;97.40;;;;;;5067852;28;20343;-81
2021/04/27 10:39:55;;;;;;;1.53;1.03;;;14.40;98.90;;;;;;5050990;28;20329;-82
2021/04/27 10:42:33;;;;;;;2.50;1.37;;;14.20;99.90;;;;;;5015018;28;20320;-79
2021/04/27 10:45:01;;;;;;;3.60;1.87;;;14.10;97.90;;;;;;5066277;28;20700;-79
2021/04/27 10:47:30;;;;;;;1.10;1.00;;;14.50;97.80;;;;;;5065803;28;20213;-80
2021/04/27 10:49:57;;;;;;;2.37;2.17;;;14.20;97.60;;;;;;5033555;28;20180;-81
2021/04/27 10:52:34;;;;;;;2.30;1.53;;;14.00;99.80;;;;;;5066781;28;20229;-80
2021/04/27 10:55:29;;;;;;;1.67;1.57;;;13.70;98.10;;;;;;5048014;28;20247;-81
2021/04/27 10:58:01;;;;;;;1.43;0.90;;;14.20;99.40;;;;;;5068137;28;20239;-80
2021/04/27 11:00:41;;;;;;;1.67;1.57;;;13.90;96.70;;;;;;5053073;28;20679;-82
2021/04/27 11:03:12;;;;;;;1.93;1.07;;;13.80;98.50;;;;;;5068666;28;20231;-83
2021/04/27 11:05:57;;;;;;;1.83;1.63;;;13.70;97.30;;;;;;5069835;28;20231;-82
2021/04/27 11:08:41;;;;;;;3.80;1.87;;;14.10;97.70;;;;;;5051851;28;20192;-80
2021/04/27 11:11:22;;;;;;;0.80;0.80;;;13.80;97.10;;;;;;5053171;28;20220;-82
2021/04/27 11:13:50;;;;;;;2.00;1.47;;;13.70;97.40;;;;;;5052066;28;20757;-80
2021/04/27 11:16:30;;;;;;;2.73;1.60;;;13.60;97.60;;;;;;5035919;28;20301;-80
2021/04/27 11:19:36;;;;;;;1.57;1.43;;;13.70;98.00;;;;;;5025664;28;20209;-80
2021/04/27 11:22:36;;;;;;;1.70;1.60;;;14.00;97.70;;;;;;5042653;28;20255;-80
2021/04/27 11:25:06;;;;;;;2.43;1.60;;;13.90;98.10;;;;;;5024587;28;20269;-82
2021/04/27 11:27:34;;;;;;;1.37;0.87;;;13.70;96.40;;;;;;5068923;28;20217;-80
2021/04/27 11:30:15;;;;;;;1.70;1.60;;;14.00;98.30;;;;;;5052057;28;20225;-80
2021/04/27 11:32:43;;;;;;;2.97;1.80;;;14.00;96.40;;;;;;5068519;28;20228;-80
2021/04/27 11:35:18;;;;;;;1.27;1.10;;;14.50;97.90;;;;;;5052175;28;20196;-80
2021/04/27 11:37:57;;;;;;;1.80;1.30;;;14.50;95.60;;;;;;5050805;28;20188;-81
2021/04/27 11:40:25;;;;;;;0.97;0.97;;;14.60;95.50;;;;;;5030728;28;20219;-80
2021/04/27 11:43:20;;;;;;;0.97;0.97;;;14.20;95.00;;;;;;5046899;28;20223;-81
2021/04/27 11:45:48;;;;;;;3.27;1.40;;;13.80;95.20;;;;;;5046125;28;20227;-83
2021/04/27 11:48:22;;;;;;;3.50;1.67;;;13.70;97.40;;;;;;5061815;28;20604;-83
2021/04/27 11:50:49;;;;;;;2.73;1.20;;;13.60;95.40;;;;;;5062994;28;20298;-81
2021/04/27 11:53:17;;;;;;;1.53;1.43;;;13.80;99.10;;;;;;5049276;28;20197;-80
2021/04/27 11:55:54;;;;;;;1.17;1.07;;;13.90;94.70;;;;;;5051280;28;20311;-82
2021/04/27 11:58:23;;;;;;;3.07;1.63;;;14.30;94.50;;;;;;5069176;28;20217;-81
2021/04/27 12:00:58;;;;;;;2.37;1.67;;;14.40;96.90;;;;;;5038175;28;20260;-82
2021/04/27 12:03:38;;;;;;;3.67;1.93;;;14.10;99.20;;;;;;5053766;28;20220;-83
2021/04/27 12:06:07;;;;;;;0.93;0.87;;;13.70;96.90;;;;;;5070717;28;20266;-81
2021/04/27 12:08:36;;;;;;;2.13;1.80;;;13.70;96.20;;;;;;5052704;28;20228;-80
2021/04/27 12:11:09;;;;;;;1.73;1.20;;;14.20;97.10;;;;;;5052962;28;20266;-82
2021/04/27 12:13:35;;;;;;;0.80;0.80;;;14.40;94.10;;;;;;5067343;28;20221;-79
2021/04/27 12:16:06;;;;;;;1.83;1.30;;;14.80;95.40;;;;;;5030733;28;20273;-81
2021/04/27 12:18:52;;;;;;;4.57;1.80;;;14.30;93.50;;;;;;5050577;28;20220;-81
2021/04/27 12:21:31;;;;;;;1.33;1.23;;;14.20;96.50;;;;;;5048416;28;20994;-81
2021/04/27 12:24:23;;;;;;;1.40;1.30;;;13.90;96.20;;;;;;5067543;28;20263;-81
2021/04/27 12:26:55;;;;;;;3.47;1.90;;;13.80;96.30;;;;;;5049942;28;20229;-79
2021/04/27 12:29:28;;;;;;;3.60;1.23;;;13.80;96.40;;;;;;5053463;28;20242;-81
2021/04/27 12:31:55;;;;;;;1.33;1.10;;;13.90;96.50;;;;;;5056606;28;20872;-81
2021/04/27 12:34:22;;;;;;;1.37;1.20;;;13.70;95.50;;;;;;5051673;28;20250;-82
2021/04/27 12:36:50;;;;;;;3.30;1.70;;;13.80;95.30;;;;;;5065650;28;20224;-81
2021/04/27 12:39:22;;;;;;;2.13;1.93;;;13.90;95.60;;;;;;5071898;28;20698;-81
2021/04/27 12:41:53;;;;;;;1.23;0.97;;;14.20;95.40;;;;;;5054080;28;20235;-82
2021/04/27 12:44:38;;;;;;;2.93;1.40;;;14.30;95.50;;;;;;5047210;28;20189;-80
2021/04/27 12:47:26;;;;;;;1.97;1.20;;;14.20;95.20;;;;;;5070580;28;20185;-83
2021/04/27 12:50:01;;;;;;;0.90;0.90;;;14.00;94.40;;;;;;5070341;28;20213;-82
2021/04/27 12:52:28;;;;;;;2.63;1.07;;;13.90;94.10;;;;;;5053841;28;20232;-81
2021/04/27 12:55:03;;;;;;;2.87;1.57;;;13.70;95.20;;;;;;5067641;28;20240;-82
2021/04/27 12:57:30;;;;;;;1.70;1.40;;;13.70;94.90;;;;;;5050317;28;20252;-82
2021/04/27 13:00:06;;;;;;;1.17;1.07;;;13.70;94.50;;;;;;5034097;28;20302;-81
2021/04/27 13:02:32;;;;;;;1.97;1.07;;;13.90;96.30;;;;;;5051534;28;20539;-81
2021/04/27 13:04:59;;;;;;;3.13;1.33;;;14.20;98.70;;;;;;5014556;28;20964;-81